createdAt,value
2018-10-16T00:01:08.525Z,93.10
2018-10-16T00:03:38.133Z,93.30
2018-10-16T00:06:08.337Z,93.30
2018-10-16T00:08:38.274Z,93.20
2018-10-16T00:11:07.873Z,93.30
2018-10-16T00:13:37.486Z,93.40
2018-10-16T00:16:07.464Z,93.40
2018-10-16T00:18:37.140Z,93.50
2018-10-16T00:21:06.828Z,93.50
2018-10-16T00:23:36.571Z,93.50
2018-10-16T00:26:06.545Z,93.40
2018-10-16T00:28:36.119Z,93.50
2018-10-16T00:31:06.412Z,93.20
2018-10-16T00:33:37.119Z,93.30
2018-10-16T00:36:06.922Z,93.10
2018-10-16T00:38:36.428Z,93.40
2018-10-16T00:41:06.627Z,93.40
2018-10-16T00:43:36.203Z,93.50
2018-10-16T00:46:06.068Z,93.30
2018-10-16T00:48:35.710Z,93.30
2018-10-16T00:51:05.539Z,93.70
2018-10-16T00:53:35.089Z,93.70
2018-10-16T00:56:04.675Z,93.40
2018-10-16T00:58:34.310Z,93.50
2018-10-16T01:01:03.883Z,93.30
2018-10-16T01:03:33.479Z,93.60
2018-10-16T01:06:02.972Z,93.70
2018-10-16T01:08:32.583Z,94.00
2018-10-16T01:11:02.028Z,94.00
2018-10-16T01:13:31.658Z,94.10
2018-10-16T01:16:01.244Z,94.20
2018-10-16T01:18:30.976Z,94.20
2018-10-16T01:21:00.470Z,94.10
2018-10-16T01:23:30.031Z,93.90
2018-10-16T01:25:59.590Z,93.90
2018-10-16T01:28:29.298Z,93.90
2018-10-16T01:30:58.862Z,93.80
2018-10-16T01:33:28.351Z,93.90
2018-10-16T01:35:57.816Z,93.90
2018-10-16T01:38:27.476Z,94.00
2018-10-16T01:40:57.043Z,94.30
2018-10-16T01:43:26.823Z,94.30
2018-10-16T01:45:56.358Z,94.40
2018-10-16T01:48:25.872Z,94.30
2018-10-16T01:50:55.412Z,94.10
2018-10-16T01:53:25.573Z,94.40
2018-10-16T01:55:55.628Z,94.50
2018-10-16T01:58:25.747Z,94.50
2018-10-16T02:00:55.668Z,94.60
2018-10-16T02:03:25.773Z,94.80
2018-10-16T02:05:55.893Z,94.60
2018-10-16T02:08:25.821Z,94.60
2018-10-16T02:10:55.791Z,94.50
2018-10-16T02:13:25.884Z,94.20
2018-10-16T02:15:55.967Z,94.30
2018-10-16T02:18:26.099Z,94.50
2018-10-16T02:20:55.979Z,94.40
2018-10-16T02:23:26.081Z,94.40
2018-10-16T02:25:56.068Z,94.50
2018-10-16T02:28:26.547Z,94.40
2018-10-16T02:30:56.338Z,94.40
2018-10-16T02:33:26.624Z,94.60
2018-10-16T02:35:56.401Z,94.60
2018-10-16T02:38:26.430Z,94.60
2018-10-16T02:40:57.130Z,94.70
2018-10-16T02:43:27.375Z,94.70
2018-10-16T02:45:57.001Z,94.90
2018-10-16T02:48:27.168Z,94.80
2018-10-16T02:50:57.279Z,95.10
2018-10-16T02:53:27.475Z,94.80
2018-10-16T02:55:57.376Z,94.60
2018-10-16T02:58:27.583Z,94.70
2018-10-16T03:00:57.425Z,94.60
2018-10-16T03:03:35.393Z,94.50
2018-10-16T03:06:05.344Z,94.60
2018-10-16T03:08:35.265Z,94.70
2018-10-16T03:11:05.234Z,94.90
2018-10-16T03:13:34.754Z,95.00
2018-10-16T03:16:04.684Z,95.10
2018-10-16T03:18:35.155Z,95.20
2018-10-16T03:21:05.216Z,95.30
2018-10-16T03:23:34.707Z,95.60
2018-10-16T03:26:04.214Z,95.20
2018-10-16T03:28:33.809Z,95.00
2018-10-16T03:31:03.557Z,95.10
2018-10-16T03:33:33.056Z,95.60
2018-10-16T03:36:02.523Z,95.50
2018-10-16T03:38:32.168Z,95.40
2018-10-16T03:41:01.685Z,95.40
2018-10-16T03:43:31.353Z,95.40
2018-10-16T03:46:00.873Z,95.50
2018-10-16T03:48:30.448Z,95.60
2018-10-16T03:50:59.943Z,95.40
2018-10-16T03:53:29.408Z,94.40
2018-10-16T03:55:59.119Z,94.10
2018-10-16T03:58:28.605Z,94.00
2018-10-16T04:00:58.494Z,94.00
2018-10-16T04:03:27.992Z,94.80
2018-10-16T04:05:58.046Z,94.90
2018-10-16T04:08:27.493Z,94.80
2018-10-16T04:10:56.974Z,94.60
2018-10-16T04:13:26.509Z,94.60
2018-10-16T04:15:56.109Z,94.60
2018-10-16T04:18:25.719Z,94.90
2018-10-16T04:20:55.322Z,94.80
2018-10-16T04:23:24.821Z,94.60
2018-10-16T04:25:54.539Z,94.80
2018-10-16T04:28:24.184Z,94.90
2018-10-16T04:30:53.728Z,95.10
2018-10-16T04:33:23.303Z,95.20
2018-10-16T04:35:52.890Z,95.30
2018-10-16T04:38:22.388Z,95.40
2018-10-16T04:40:51.965Z,95.10
2018-10-16T04:43:21.473Z,95.10
2018-10-16T04:45:51.100Z,95.10
2018-10-16T04:48:20.969Z,95.10
2018-10-16T04:50:50.669Z,95.40
2018-10-16T04:53:20.230Z,95.10
2018-10-16T04:55:49.815Z,95.20
2018-10-16T04:58:19.510Z,95.40
2018-10-16T05:00:49.034Z,95.20
2018-10-16T05:03:18.557Z,95.00
2018-10-16T05:05:48.234Z,95.10
2018-10-16T05:08:17.758Z,95.10
2018-10-16T05:10:47.278Z,95.30
2018-10-16T05:13:16.809Z,95.40
2018-10-16T05:15:46.379Z,95.10
2018-10-16T05:18:15.861Z,95.30
2018-10-16T05:20:45.460Z,95.30
2018-10-16T05:23:15.029Z,95.50
2018-10-16T05:25:44.781Z,95.50
2018-10-16T05:28:14.316Z,95.70
2018-10-16T05:30:44.129Z,95.70
2018-10-16T05:33:13.963Z,95.60
2018-10-16T05:35:43.629Z,95.90
2018-10-16T05:38:13.323Z,95.60
2018-10-16T05:40:42.898Z,95.80
2018-10-16T05:43:12.432Z,95.90
2018-10-16T05:45:44.134Z,95.90
2018-10-16T05:48:13.654Z,95.80
2018-10-16T05:50:43.183Z,95.50
2018-10-16T05:53:12.805Z,95.30
2018-10-16T05:55:42.340Z,95.50
2018-10-16T05:58:11.865Z,94.70
2018-10-16T06:00:43.276Z,94.60
2018-10-16T06:03:13.209Z,94.70
2018-10-16T06:05:42.979Z,94.20
2018-10-16T06:08:12.471Z,94.50
2018-10-16T06:10:42.177Z,94.50
2018-10-16T06:13:11.661Z,94.50
2018-10-16T06:15:41.455Z,94.50
2018-10-16T06:18:10.926Z,94.40
2018-10-16T06:20:40.719Z,94.40
2018-10-16T06:23:10.197Z,94.30
2018-10-16T06:25:39.981Z,94.80
2018-10-16T06:28:19.154Z,94.80
2018-10-16T06:30:48.905Z,94.70
2018-10-16T06:33:20.457Z,94.70
2018-10-16T06:35:50.092Z,94.80
2018-10-16T06:38:19.916Z,94.90
2018-10-16T06:40:49.684Z,95.00
2018-10-16T06:43:19.117Z,95.00
2018-10-16T06:45:48.789Z,95.30
2018-10-16T06:48:18.867Z,95.10
2018-10-16T06:50:48.156Z,95.00
2018-10-16T06:53:17.831Z,95.40
2018-10-16T06:55:47.578Z,95.60
2018-10-16T06:58:17.063Z,96.10
2018-10-16T07:00:46.857Z,95.90
2018-10-16T07:03:16.480Z,95.70
2018-10-16T07:05:46.139Z,95.50
2018-10-16T07:08:15.761Z,95.70
2018-10-16T07:10:46.059Z,95.70
2018-10-16T07:13:15.594Z,95.60
2018-10-16T07:15:45.240Z,95.30
2018-10-16T07:18:14.815Z,95.30
2018-10-16T07:20:44.574Z,95.20
2018-10-16T07:23:14.282Z,94.80
2018-10-16T07:25:43.796Z,94.70
2018-10-16T07:28:13.522Z,94.20
2018-10-16T07:30:43.157Z,94.00
2018-10-16T07:33:12.690Z,93.90
2018-10-16T07:35:42.325Z,93.80
2018-10-16T07:38:11.980Z,93.90
2018-10-16T07:40:41.617Z,93.40
2018-10-16T07:43:11.214Z,93.30
2018-10-16T07:45:40.965Z,93.40
2018-10-16T07:48:10.912Z,93.20
2018-10-16T07:50:40.697Z,93.10
2018-10-16T07:53:10.593Z,93.40
2018-10-16T07:55:40.322Z,92.90
2018-10-16T07:58:10.195Z,92.50
2018-10-16T08:00:39.772Z,92.40
2018-10-16T08:03:09.402Z,92.20
2018-10-16T08:05:38.921Z,92.10
2018-10-16T08:08:08.649Z,92.10
2018-10-16T08:10:38.345Z,91.90
2018-10-16T08:13:07.851Z,91.70
2018-10-16T08:15:37.400Z,91.60
2018-10-16T08:18:07.315Z,91.40
2018-10-16T08:20:36.962Z,91.40
2018-10-16T08:23:06.686Z,91.40
2018-10-16T08:25:36.214Z,91.40
2018-10-16T08:28:07.010Z,91.30
2018-10-16T08:30:36.608Z,91.30
2018-10-16T08:33:06.757Z,91.40
2018-10-16T08:35:36.515Z,91.20
2018-10-16T08:39:17.827Z,91.10
2018-10-16T08:44:12.220Z,91.10
2018-10-16T08:46:58.549Z,90.60
2018-10-16T08:49:44.980Z,90.00
2018-10-16T08:52:14.649Z,89.20
2018-10-16T08:54:44.374Z,88.80
2018-10-16T08:57:13.955Z,89.00
2018-10-16T08:59:43.474Z,88.50
2018-10-16T09:02:13.071Z,89.00
2018-10-16T09:04:42.575Z,88.70
2018-10-16T09:07:12.069Z,88.50
2018-10-16T09:09:41.770Z,88.70
2018-10-16T09:12:11.442Z,88.40
2018-10-16T09:14:40.991Z,88.40
2018-10-16T09:17:10.554Z,88.00
2018-10-16T09:19:40.065Z,87.10
2018-10-16T09:22:09.615Z,86.90
2018-10-16T09:24:39.414Z,86.60
2018-10-16T09:27:09.056Z,86.00
2018-10-16T09:29:38.791Z,86.50
2018-10-16T09:32:08.426Z,86.30
2018-10-16T09:34:37.888Z,85.60
2018-10-16T09:37:08.510Z,85.40
2018-10-16T09:39:39.261Z,85.30
2018-10-16T09:42:08.876Z,85.30
2018-10-16T09:44:38.390Z,84.50
2018-10-16T09:47:07.901Z,85.10
2018-10-16T09:49:37.647Z,85.70
2018-10-16T09:52:07.192Z,85.30
2018-10-16T09:54:36.730Z,85.00
2018-10-16T09:57:06.491Z,85.30
2018-10-16T09:59:36.305Z,85.60
2018-10-16T10:02:06.172Z,86.30
2018-10-16T10:04:35.877Z,87.10
2018-10-16T10:07:05.532Z,87.10
2018-10-16T10:09:35.278Z,87.80
2018-10-16T10:12:04.893Z,87.40
2018-10-16T10:14:34.467Z,87.20
2018-10-16T10:17:03.977Z,86.80
2018-10-16T10:19:33.665Z,86.30
2018-10-16T10:22:03.223Z,86.60
2018-10-16T10:24:32.802Z,87.30
2018-10-16T10:27:02.354Z,86.50
2018-10-16T10:29:32.188Z,86.50
2018-10-16T10:32:05.986Z,86.30
2018-10-16T10:34:35.566Z,86.10
2018-10-16T10:37:05.441Z,84.50
2018-10-16T10:39:35.055Z,84.90
2018-10-16T10:42:04.667Z,85.20
2018-10-16T10:44:34.247Z,84.30
2018-10-16T10:47:04.799Z,84.10
2018-10-16T10:49:34.456Z,84.00
2018-10-16T10:52:04.087Z,83.20
2018-10-16T10:54:33.936Z,84.50
2018-10-16T10:57:03.858Z,83.50
2018-10-16T10:59:33.269Z,82.30
2018-10-16T11:02:02.988Z,82.40
2018-10-16T11:04:32.570Z,81.40
2018-10-16T11:07:02.190Z,81.50
2018-10-16T11:09:31.740Z,81.60
2018-10-16T11:12:01.469Z,80.70
2018-10-16T11:14:31.096Z,80.50
2018-10-16T11:17:01.014Z,80.30
2018-10-16T11:19:30.917Z,79.80
2018-10-16T11:22:00.350Z,79.90
2018-10-16T11:24:29.905Z,78.90
2018-10-16T11:26:59.477Z,78.80
2018-10-16T11:29:29.092Z,78.20
2018-10-16T11:31:58.672Z,77.80
2018-10-16T11:34:28.360Z,77.80
2018-10-16T11:36:58.025Z,77.00
2018-10-16T11:39:27.725Z,76.30
2018-10-16T11:41:57.281Z,76.20
2018-10-16T11:44:26.791Z,75.30
2018-10-16T11:46:56.315Z,73.90
2018-10-16T11:49:26.059Z,73.10
2018-10-16T11:51:55.786Z,73.10
2018-10-16T11:54:25.288Z,71.90
2018-10-16T11:56:54.913Z,70.10
2018-10-16T11:59:24.632Z,70.50
2018-10-16T12:01:54.507Z,70.50
2018-10-16T12:04:24.191Z,69.70
2018-10-16T12:06:53.881Z,69.40
2018-10-16T12:09:23.648Z,69.40
2018-10-16T12:11:53.415Z,68.70
2018-10-16T12:14:23.503Z,70.10
2018-10-16T12:16:58.153Z,69.30
2018-10-16T12:19:35.530Z,68.00
2018-10-16T12:22:06.247Z,68.20
2018-10-16T12:24:35.995Z,67.50
2018-10-16T12:27:05.752Z,67.60
2018-10-16T12:29:35.417Z,65.70
2018-10-16T12:32:05.384Z,65.10
2018-10-16T12:34:35.135Z,63.50
2018-10-16T12:37:04.738Z,63.30
2018-10-16T12:39:34.395Z,63.80
2018-10-16T12:42:04.000Z,61.40
2018-10-16T12:44:33.806Z,60.20
2018-10-16T12:47:04.229Z,60.50
2018-10-16T12:49:33.982Z,60.40
2018-10-16T12:52:03.722Z,58.50
2018-10-16T12:54:33.596Z,59.60
2018-10-16T12:57:03.442Z,59.40
2018-10-16T12:59:32.895Z,58.40
2018-10-16T13:02:02.455Z,57.00
2018-10-16T13:04:32.136Z,56.60
2018-10-16T13:07:13.768Z,57.80
2018-10-16T13:09:43.478Z,57.80
2018-10-16T13:12:13.266Z,58.90
2018-10-16T13:14:42.977Z,57.70
2018-10-16T13:17:12.784Z,57.30
2018-10-16T13:19:42.482Z,56.60
2018-10-16T13:22:12.521Z,56.70
2018-10-16T13:24:42.037Z,55.90
2018-10-16T13:27:11.698Z,55.20
2018-10-16T13:29:41.439Z,55.00
2018-10-16T13:32:10.965Z,54.20
2018-10-16T13:34:40.820Z,53.10
2018-10-16T13:37:10.585Z,53.20
2018-10-16T13:39:40.171Z,52.30
2018-10-16T13:42:09.854Z,53.10
2018-10-16T13:44:39.766Z,50.90
2018-10-16T13:47:09.327Z,50.30
2018-10-16T13:49:39.110Z,50.20
2018-10-16T13:52:08.767Z,49.30
2018-10-16T13:55:12.425Z,48.20
2018-10-16T13:57:42.352Z,48.00
2018-10-16T14:00:18.195Z,48.30
2018-10-16T14:02:49.072Z,49.50
2018-10-16T14:05:18.744Z,49.60
2018-10-16T14:07:48.559Z,50.30
2018-10-16T14:10:18.601Z,50.30
2018-10-16T14:12:49.017Z,49.90
2018-10-16T14:15:19.543Z,49.60
2018-10-16T14:17:49.263Z,49.40
2018-10-16T14:20:19.307Z,48.30
2018-10-16T14:22:49.331Z,48.10
2018-10-16T14:25:18.962Z,48.50
2018-10-16T14:27:48.594Z,49.10
2018-10-16T14:30:18.327Z,49.00
2018-10-16T14:32:48.131Z,48.50
2018-10-16T14:35:17.826Z,47.60
2018-10-16T14:37:47.537Z,47.50
2018-10-16T14:40:17.607Z,47.50
2018-10-16T14:42:47.173Z,48.00
2018-10-16T14:45:16.966Z,46.80
2018-10-16T14:47:46.703Z,46.70
2018-10-16T14:50:16.352Z,47.40
2018-10-16T14:52:46.257Z,47.40
2018-10-16T14:55:15.836Z,48.60
2018-10-16T14:57:45.605Z,49.40
2018-10-16T15:00:15.244Z,50.50
2018-10-16T15:02:44.913Z,51.50
2018-10-16T15:05:14.592Z,52.30
2018-10-16T15:07:44.413Z,53.20
2018-10-16T15:10:14.409Z,53.10
2018-10-16T15:12:43.972Z,53.60
2018-10-16T15:15:13.776Z,54.40
2018-10-16T15:17:43.407Z,55.50
2018-10-16T15:20:13.137Z,55.50
2018-10-16T15:22:42.927Z,56.40
2018-10-16T15:25:12.595Z,57.40
2018-10-16T15:27:42.322Z,58.00
2018-10-16T15:30:12.058Z,58.30
2018-10-16T15:32:41.871Z,58.30
2018-10-16T15:35:12.110Z,59.10
2018-10-16T15:37:41.867Z,59.50
2018-10-16T15:40:12.128Z,60.70
2018-10-16T15:42:42.368Z,61.00
2018-10-16T15:45:12.931Z,61.70
2018-10-16T15:47:43.098Z,62.20
2018-10-16T15:50:12.807Z,63.40
2018-10-16T15:52:42.572Z,64.60
2018-10-16T15:55:12.402Z,65.30
2018-10-16T15:57:42.718Z,66.70
2018-10-16T16:00:15.756Z,67.60
2018-10-16T16:02:45.284Z,67.30
2018-10-16T16:05:14.856Z,68.20
2018-10-16T16:07:44.454Z,68.60
2018-10-16T16:10:15.829Z,69.10
2018-10-16T16:12:45.506Z,69.80
2018-10-16T16:15:15.332Z,70.60
2018-10-16T16:17:45.275Z,70.80
2018-10-16T16:20:15.862Z,71.00
2018-10-16T16:22:45.490Z,71.50
2018-10-16T16:25:15.933Z,72.10
2018-10-16T16:27:45.633Z,72.40
2018-10-16T16:30:16.438Z,73.00
2018-10-16T16:32:46.025Z,73.60
2018-10-16T16:35:15.876Z,74.20
2018-10-16T16:37:45.702Z,74.70
2018-10-16T16:40:15.601Z,75.10
2018-10-16T16:42:45.263Z,75.80
2018-10-16T16:45:15.005Z,76.60
2018-10-16T16:47:44.855Z,77.10
2018-10-16T16:50:14.752Z,78.00
2018-10-16T16:52:44.952Z,78.60
2018-10-16T16:55:15.859Z,79.30
2018-10-16T16:57:45.620Z,80.10
2018-10-16T17:00:15.807Z,80.90
2018-10-16T17:02:46.268Z,80.80
2018-10-16T17:05:16.240Z,81.10
2018-10-16T17:07:46.213Z,81.20
2018-10-16T17:10:16.016Z,81.80
2018-10-16T17:12:45.707Z,82.20
2018-10-16T17:15:16.544Z,82.50
2018-10-16T17:17:47.232Z,82.80
2018-10-16T17:20:17.259Z,83.00
2018-10-16T17:22:47.050Z,83.20
2018-10-16T17:25:16.897Z,83.50
2018-10-16T17:27:46.365Z,83.70
2018-10-16T17:30:17.431Z,84.00
2018-10-16T17:32:47.288Z,84.20
2018-10-16T17:35:17.036Z,84.50
2018-10-16T17:37:47.840Z,84.90
2018-10-16T17:40:18.020Z,85.20
2018-10-16T17:42:47.769Z,85.40
2018-10-16T17:45:18.053Z,85.70
2018-10-16T17:47:48.075Z,85.90
2018-10-16T17:50:18.963Z,86.70
2018-10-16T17:52:48.707Z,86.70
2018-10-16T17:55:18.561Z,86.80
2018-10-16T17:57:48.514Z,86.80
2018-10-16T18:00:19.629Z,87.10
2018-10-16T18:02:49.634Z,87.50
2018-10-16T18:05:19.616Z,87.70
2018-10-16T18:07:49.358Z,87.90
2018-10-16T18:10:19.309Z,88.10
2018-10-16T18:12:49.100Z,88.30
2018-10-16T18:15:18.951Z,88.60
2018-10-16T18:17:48.841Z,88.80
2018-10-16T18:20:18.554Z,88.90
2018-10-16T18:22:48.497Z,89.10
2018-10-16T18:25:18.291Z,89.40
2018-10-16T18:27:48.149Z,89.70
2018-10-16T18:30:18.254Z,90.00
2018-10-16T18:32:47.864Z,90.10
2018-10-16T18:35:17.752Z,90.30
2018-10-16T18:37:47.718Z,90.40
2018-10-16T18:40:17.577Z,90.40
2018-10-16T18:42:48.403Z,90.40
2018-10-16T18:45:19.155Z,90.50
2018-10-16T18:47:48.748Z,90.50
2018-10-16T18:50:18.628Z,90.60
2018-10-16T18:52:48.552Z,90.70
2018-10-16T18:55:18.553Z,90.90
2018-10-16T18:57:48.807Z,91.00
2018-10-16T19:00:19.611Z,91.10
2018-10-16T19:02:49.887Z,91.20
2018-10-16T19:05:19.813Z,91.20
2018-10-16T19:07:49.853Z,91.20
2018-10-16T19:10:19.955Z,91.40
2018-10-16T19:12:50.261Z,91.40
2018-10-16T19:15:20.374Z,91.50
2018-10-16T19:17:50.222Z,91.50
2018-10-16T19:20:19.851Z,91.40
2018-10-16T19:22:49.864Z,91.40
2018-10-16T19:25:20.674Z,91.70
2018-10-16T19:27:50.934Z,91.70
2018-10-16T19:30:20.623Z,91.50
2018-10-16T19:32:50.632Z,91.60
2018-10-16T19:35:20.768Z,91.60
2018-10-16T19:37:50.820Z,91.60
2018-10-16T19:40:20.695Z,91.80
2018-10-16T19:42:50.434Z,91.80
2018-10-16T19:45:20.194Z,91.80
2018-10-16T19:47:49.907Z,92.00
2018-10-16T19:50:19.554Z,92.00
2018-10-16T19:52:50.239Z,92.00
2018-10-16T19:55:20.032Z,92.10
2018-10-16T19:57:49.839Z,92.10
2018-10-16T20:00:19.839Z,92.40
2018-10-16T20:02:49.563Z,92.40
2018-10-16T20:05:19.289Z,92.40
2018-10-16T20:07:48.903Z,92.60
2018-10-16T20:10:18.596Z,92.80
2018-10-16T20:12:48.388Z,92.90
2018-10-16T20:15:18.109Z,92.80
2018-10-16T20:17:47.634Z,92.90
2018-10-16T20:20:17.256Z,93.10
2018-10-16T20:22:46.979Z,93.20
2018-10-16T20:25:16.912Z,93.30
2018-10-16T20:27:46.547Z,93.30
2018-10-16T20:30:16.197Z,94.00
2018-10-16T20:32:45.843Z,94.00
2018-10-16T20:35:15.582Z,93.90
2018-10-16T20:37:45.393Z,93.80
2018-10-16T20:40:15.073Z,93.80
2018-10-16T20:42:44.749Z,93.90
2018-10-16T20:45:15.357Z,93.90
2018-10-16T20:47:45.196Z,93.90
2018-10-16T20:50:14.910Z,94.10
2018-10-16T20:52:44.748Z,93.90
2018-10-16T20:55:14.453Z,93.90
2018-10-16T20:57:44.217Z,94.00
2018-10-16T21:00:13.843Z,94.00
2018-10-16T21:02:43.466Z,94.20
2018-10-16T21:05:13.251Z,94.20
2018-10-16T21:07:42.882Z,94.30
2018-10-16T21:10:12.738Z,94.40
2018-10-16T21:12:42.679Z,94.50
2018-10-16T21:15:12.408Z,94.60
2018-10-16T21:17:42.248Z,94.70
2018-10-16T21:20:12.021Z,94.70
2018-10-16T21:22:41.827Z,94.60
2018-10-16T21:25:11.582Z,94.70
2018-10-16T21:27:41.120Z,94.90
2018-10-16T21:30:11.032Z,95.00
2018-10-16T21:32:40.752Z,95.10
2018-10-16T21:35:10.412Z,95.20
2018-10-16T21:37:40.972Z,95.20
2018-10-16T21:40:10.576Z,95.70
2018-10-16T21:42:40.234Z,95.70
2018-10-16T21:45:09.887Z,95.80
2018-10-16T21:47:39.604Z,96.80
2018-10-16T21:50:09.248Z,97.30
2018-10-16T21:52:39.243Z,97.60
2018-10-16T21:55:08.832Z,97.10
2018-10-16T21:57:38.569Z,97.60
2018-10-16T22:00:14.840Z,97.70
2018-10-16T22:02:48.097Z,97.00
2018-10-16T22:05:24.786Z,96.50
2018-10-16T22:07:56.353Z,96.00
2018-10-16T22:10:26.076Z,96.00
2018-10-16T22:12:56.709Z,96.00
2018-10-16T22:15:26.428Z,96.10
2018-10-16T22:17:55.988Z,96.10
2018-10-16T22:20:25.600Z,96.40
2018-10-16T22:22:55.299Z,96.60
2018-10-16T22:25:25.261Z,96.80
2018-10-16T22:27:54.939Z,96.80
2018-10-16T22:30:24.428Z,96.30
2018-10-16T22:32:53.973Z,95.80
2018-10-16T22:35:23.627Z,96.30
2018-10-16T22:37:53.281Z,96.20
2018-10-16T22:40:22.931Z,96.50
2018-10-16T22:42:52.632Z,96.70
2018-10-16T22:45:22.347Z,97.30
2018-10-16T22:47:51.910Z,97.00
2018-10-16T22:50:21.696Z,96.80
2018-10-16T22:52:51.420Z,96.50
2018-10-16T22:55:20.928Z,96.30
2018-10-16T22:57:50.537Z,96.00
2018-10-16T23:00:20.241Z,96.00
2018-10-16T23:02:49.917Z,96.20
2018-10-16T23:05:19.629Z,96.00
2018-10-16T23:07:49.386Z,96.10
2018-10-16T23:10:19.099Z,96.00
2018-10-16T23:12:53.870Z,96.10
2018-10-16T23:15:23.468Z,96.10
2018-10-16T23:17:52.988Z,96.60
2018-10-16T23:20:22.698Z,96.00
2018-10-16T23:22:52.320Z,95.80
2018-10-16T23:25:21.863Z,96.20
2018-10-16T23:27:51.385Z,96.70
2018-10-16T23:30:21.018Z,96.70
2018-10-16T23:32:50.543Z,96.70
2018-10-16T23:35:20.073Z,96.90
2018-10-16T23:37:49.597Z,97.30
2018-10-16T23:40:19.100Z,97.00
2018-10-16T23:42:48.667Z,96.80
2018-10-16T23:45:18.238Z,96.90
2018-10-16T23:47:48.712Z,97.40
2018-10-16T23:50:18.402Z,97.30
2018-10-16T23:52:47.964Z,97.10
2018-10-16T23:55:17.556Z,96.70
2018-10-16T23:57:47.006Z,97.00
